CDT,Max TemperatureF,Mean TemperatureF,Min TemperatureF,Max Dew PointF,MeanDew PointF,Min DewpointF,Max Humidity, Mean Humidity, Min Humidity, Max Sea Level PressureIn, Mean Sea Level PressureIn, Min Sea Level PressureIn, Max VisibilityMiles, Mean VisibilityMiles, Min VisibilityMiles, Max Wind SpeedMPH, Mean Wind SpeedMPH, Max Gust SpeedMPH,PrecipitationIn, CloudCover, Events, WindDirDegrees
2013-8-1,86,70,55,61,55,50,88,62,35,30.11,30.02,29.92,10,10,7,15,4,23,0.00,2,,260
2013-8-2,71,65,57,57,55,50,88,68,49,30.09,29.99,29.93,10,10,4,12,2,,0.00,4,Rain,333
2013-8-3,75,62,50,54,49,43,94,63,33,30.23,30.17,30.09,10,10,4,12,3,18,0.00,0,,339
2013-8-4,78,64,50,59,51,45,88,61,34,30.25,30.16,30.03,10,10,1,12,3,21,0.69,2,Rain-Thunderstorm,152
2013-8-5,82,72,62,68,62,59,94,76,48,30.03,29.91,29.86,10,9,2,15,8,20,0.00,5,Rain-Thunderstorm,249
2013-8-6,86,72,59,64,60,55,94,69,35,29.90,29.84,29.79,10,8,2,15,6,18,0.00,0,,238
2013-8-7,73,66,59,59,56,52,94,71,47,30.07,29.98,29.86,10,10,7,16,8,24,0.00,4,,360
2013-8-8,73,66,59,64,57,50,94,76,64,30.10,30.04,30.00,10,9,2,13,5,16,0.33,6,Rain,151
2013-8-9,75,66,57,63,57,54,94,73,50,30.17,30.11,30.04,10,8,0,15,5,23,0.00,2,,341
2013-8-10,77,65,53,63,56,50,94,76,47,30.22,30.18,30.10,10,9,5,10,2,,0.04,4,Rain,215
2013-8-11,71,66,60,64,61,59,94,85,73,30.12,30.08,30.04,10,7,0,16,5,22,0.74,6,Fog-Rain-Thunderstorm,126
2013-8-12,75,66,57,61,56,52,94,72,47,30.12,30.09,30.06,10,8,0,13,4,18,0.00,1,Fog,334
2013-8-13,71,62,53,57,52,46,94,69,41,30.22,30.17,30.11,10,10,7,13,5,17,0.00,1,,13
2013-8-14,73,62,51,55,50,46,94,66,41,30.24,30.19,30.14,10,10,10,10,3,,0.00,1,,193
2013-8-15,71,61,51,55,53,48,94,74,53,30.18,30.14,30.12,10,8,0,10,3,,0.00,4,Fog,172
2013-8-16,75,62,50,55,53,48,94,70,47,30.23,30.20,30.16,10,8,0,10,3,16,0.00,3,Fog,163
2013-8-17,78,66,53,55,53,50,88,63,39,30.22,30.18,30.13,10,10,10,16,7,20,0.00,1,,177
2013-8-18,78,66,53,55,53,50,88,62,36,30.16,30.12,30.04,10,10,10,17,8,24,0.00,0,,186
2013-8-19,86,75,64,66,62,55,83,66,48,30.07,29.99,29.93,10,10,10,17,10,23,0.00,2,,194
2013-8-20,86,77,68,70,67,63,88,74,58,29.95,29.92,29.90,10,9,5,13,9,17,0.00,2,,190
2013-8-21,82,76,71,72,68,64,94,79,62,30.03,29.95,29.89,10,8,2,15,9,18,0.00,0,Rain-Thunderstorm,220
2013-8-22,80,72,64,70,64,59,94,77,57,30.15,30.10,30.02,10,8,2,20,6,25,0.18,2,Rain-Thunderstorm,38
2013-8-23,82,71,60,70,65,57,94,78,58,30.15,30.10,30.03,10,9,4,14,5,20,0.00,2,,127
2013-8-24,86,78,71,70,68,66,88,73,55,30.09,30.04,29.98,10,10,7,24,13,30,0.00,1,Thunderstorm,172
2013-8-25,89,82,75,72,70,68,78,67,49,30.07,30.04,30.01,10,10,10,21,14,28,0.00,0,,197
2013-8-26,91,83,75,72,70,66,78,65,49,30.05,29.99,29.91,10,10,10,17,13,24,0.00,0,,201
2013-8-27,89,82,75,73,69,64,89,63,52,29.95,29.89,29.86,10,10,7,17,11,23,0.00,0,,235
2013-8-28,91,81,71,77,73,68,94,79,59,30.03,29.99,29.94,10,7,0,12,3,,0.00,3,Fog,107
2013-8-29,89,79,69,72,66,61,88,66,38,30.03,29.98,29.91,10,10,10,13,7,18,0.00,0,,198
2013-8-30,80,72,62,70,68,61,94,77,58,29.96,29.93,29.91,10,10,5,16,7,17,0.00,2,,2
2013-8-31,87,74,60,68,62,57,94,71,38,29.93,29.87,29.80,10,9,3,12,3,,0.02,0,Rain-Thunderstorm,215